CheckWX is a tool to help pilots better visualize weather data.  It is not intended as a substitute for an official pre-flight weather briefing.

17:11:09 UTC

KAAO METAR
Colonel James Jabara Airport
Wichita, Kansas, USA
Current

17 mins ago

KAAO 211654Z AUTO 34015KT 10SM OVC018 06/02 A3009 RMK AO2 SLP190 T00610017
Observed
Nov-21 @ 16:54 UTC
Wind
  • 340° at 15 KTS
Visibility
10 SM
Flight Rules
MVFR
Cloud Levels
  • Overcast at 1,800' AGL
Temperature
C / 43°F
Dewpoint
C / 36°F
Humidity
76%
Altimeter
30.09" Hg
Pressure
1018.92 hPa
Previous

1 hour ago

KAAO 211554Z AUTO 36013G21KT 10SM OVC019 06/02 A3008 RMK AO2 SLP186 T00610022
Observed
Nov-21 @ 15:54 UTC
Wind
  • 360° at 13 KTS
  • Gusting to 21 KTS
Visibility
10 SM
Flight Rules
MVFR
Cloud Levels
  • Overcast at 1,900' AGL
Temperature
C / 43°F
Dewpoint
C / 36°F
Humidity
76%
Altimeter
30.08" Hg
Pressure
1018.62 hPa
Previous

2 hours ago

KAAO 211454Z AUTO 34013KT 10SM OVC016 05/02 A3009 RMK AO2 SLP190 T00500017 53033
Observed
Nov-21 @ 14:54 UTC
Wind
  • 340° at 13 KTS
Visibility
10 SM
Flight Rules
MVFR
Cloud Levels
  • Overcast at 1,600' AGL
Temperature
C / 41°F
Dewpoint
C / 36°F
Humidity
81%
Altimeter
30.09" Hg
Pressure
1018.92 hPa